sensor_id;sensor_type;location;lat;lon;timestamp;P1;durP1;ratioP1;P2;durP2;ratioP2
36415;SDS011;22447;44.530;18.620;2022-08-19T00:01:46;19.10;;;12.43;;
36415;SDS011;22447;44.530;18.620;2022-08-19T00:04:14;18.40;;;11.93;;
36415;SDS011;22447;44.530;18.620;2022-08-19T00:06:42;16.92;;;11.48;;
36415;SDS011;22447;44.530;18.620;2022-08-19T00:09:11;17.33;;;11.32;;
36415;SDS011;22447;44.530;18.620;2022-08-19T00:11:40;21.77;;;10.75;;
36415;SDS011;22447;44.530;18.620;2022-08-19T00:14:06;12.90;;;10.63;;
36415;SDS011;22447;44.530;18.620;2022-08-19T00:16:35;17.02;;;10.60;;
36415;SDS011;22447;44.530;18.620;2022-08-19T00:19:02;15.07;;;11.05;;
36415;SDS011;22447;44.530;18.620;2022-08-19T00:21:28;14.30;;;10.98;;
36415;SDS011;22447;44.530;18.620;2022-08-19T00:23:55;14.43;;;9.57;;
36415;SDS011;22447;44.530;18.620;2022-08-19T00:26:23;15.10;;;10.05;;
36415;SDS011;22447;44.530;18.620;2022-08-19T00:28:50;15.70;;;11.35;;
36415;SDS011;22447;44.530;18.620;2022-08-19T00:31:16;19.98;;;11.57;;
36415;SDS011;22447;44.530;18.620;2022-08-19T00:33:43;16.30;;;11.43;;
36415;SDS011;22447;44.530;18.620;2022-08-19T00:36:09;16.70;;;12.43;;
36415;SDS011;22447;44.530;18.620;2022-08-19T00:38:36;17.30;;;10.85;;
36415;SDS011;22447;44.530;18.620;2022-08-19T00:41:06;13.75;;;10.27;;
36415;SDS011;22447;44.530;18.620;2022-08-19T00:43:34;16.42;;;10.82;;
36415;SDS011;22447;44.530;18.620;2022-08-19T00:46:04;16.20;;;10.70;;
36415;SDS011;22447;44.530;18.620;2022-08-19T00:48:30;18.48;;;11.35;;
36415;SDS011;22447;44.530;18.620;2022-08-19T00:50:58;16.85;;;9.60;;
36415;SDS011;22447;44.530;18.620;2022-08-19T00:53:26;17.90;;;10.15;;
36415;SDS011;22447;44.530;18.620;2022-08-19T00:55:55;13.40;;;9.85;;
36415;SDS011;22447;44.530;18.620;2022-08-19T00:58:24;16.15;;;10.30;;
36415;SDS011;22447;44.530;18.620;2022-08-19T01:00:52;16.10;;;10.35;;
36415;SDS011;22447;44.530;18.620;2022-08-19T01:03:20;16.73;;;10.65;;
36415;SDS011;22447;44.530;18.620;2022-08-19T01:05:47;12.55;;;10.23;;
36415;SDS011;22447;44.530;18.620;2022-08-19T01:08:16;14.48;;;10.02;;
36415;SDS011;22447;44.530;18.620;2022-08-19T01:10:45;19.65;;;10.50;;
36415;SDS011;22447;44.530;18.620;2022-08-19T01:13:15;18.25;;;11.95;;
36415;SDS011;22447;44.530;18.620;2022-08-19T01:15:45;13.65;;;10.45;;
36415;SDS011;22447;44.530;18.620;2022-08-19T01:18:15;14.45;;;10.40;;
36415;SDS011;22447;44.530;18.620;2022-08-19T01:20:43;18.38;;;11.18;;
36415;SDS011;22447;44.530;18.620;2022-08-19T01:23:09;20.83;;;11.30;;
36415;SDS011;22447;44.530;18.620;2022-08-19T01:25:49;20.17;;;10.30;;
36415;SDS011;22447;44.530;18.620;2022-08-19T01:28:18;15.82;;;10.43;;
36415;SDS011;22447;44.530;18.620;2022-08-19T01:30:51;16.02;;;10.80;;
36415;SDS011;22447;44.530;18.620;2022-08-19T01:33:17;17.15;;;11.15;;
36415;SDS011;22447;44.530;18.620;2022-08-19T01:35:44;14.38;;;10.75;;
36415;SDS011;22447;44.530;18.620;2022-08-19T01:38:19;18.45;;;11.00;;
36415;SDS011;22447;44.530;18.620;2022-08-19T01:40:47;18.92;;;10.70;;
36415;SDS011;22447;44.530;18.620;2022-08-19T01:43:13;13.90;;;9.98;;
36415;SDS011;22447;44.530;18.620;2022-08-19T01:45:40;14.05;;;9.88;;
36415;SDS011;22447;44.530;18.620;2022-08-19T01:48:07;18.08;;;10.27;;
36415;SDS011;22447;44.530;18.620;2022-08-19T01:50:33;21.85;;;11.77;;
36415;SDS011;22447;44.530;18.620;2022-08-19T01:53:00;18.65;;;10.68;;
36415;SDS011;22447;44.530;18.620;2022-08-19T01:55:28;16.80;;;10.38;;
36415;SDS011;22447;44.530;18.620;2022-08-19T01:57:55;21.00;;;10.85;;
36415;SDS011;22447;44.530;18.620;2022-08-19T02:00:25;17.30;;;10.82;;
36415;SDS011;22447;44.530;18.620;2022-08-19T02:02:55;15.60;;;10.13;;
36415;SDS011;22447;44.530;18.620;2022-08-19T02:05:21;19.73;;;10.15;;
36415;SDS011;22447;44.530;18.620;2022-08-19T02:07:48;16.77;;;10.52;;
36415;SDS011;22447;44.530;18.620;2022-08-19T02:10:19;17.77;;;11.20;;
36415;SDS011;22447;44.530;18.620;2022-08-19T02:12:46;16.73;;;10.68;;
36415;SDS011;22447;44.530;18.620;2022-08-19T02:15:14;14.10;;;10.25;;
36415;SDS011;22447;44.530;18.620;2022-08-19T02:17:41;17.13;;;10.55;;
36415;SDS011;22447;44.530;18.620;2022-08-19T02:20:07;16.55;;;9.90;;
36415;SDS011;22447;44.530;18.620;2022-08-19T02:22:34;14.93;;;10.23;;
36415;SDS011;22447;44.530;18.620;2022-08-19T02:25:00;16.83;;;10.45;;
36415;SDS011;22447;44.530;18.620;2022-08-19T02:27:27;16.95;;;9.85;;
36415;SDS011;22447;44.530;18.620;2022-08-19T02:29:53;13.18;;;10.45;;
36415;SDS011;22447;44.530;18.620;2022-08-19T02:32:19;14.85;;;9.40;;
36415;SDS011;22447;44.530;18.620;2022-08-19T02:34:46;15.40;;;10.88;;
36415;SDS011;22447;44.530;18.620;2022-08-19T02:37:12;15.90;;;9.73;;
36415;SDS011;22447;44.530;18.620;2022-08-19T02:39:57;14.20;;;10.38;;
36415;SDS011;22447;44.530;18.620;2022-08-19T02:42:24;13.88;;;10.32;;
36415;SDS011;22447;44.530;18.620;2022-08-19T02:44:50;18.52;;;10.55;;
36415;SDS011;22447;44.530;18.620;2022-08-19T02:47:17;15.95;;;9.60;;
36415;SDS011;22447;44.530;18.620;2022-08-19T02:49:44;13.82;;;9.07;;
36415;SDS011;22447;44.530;18.620;2022-08-19T02:52:11;14.07;;;10.75;;
36415;SDS011;22447;44.530;18.620;2022-08-19T02:54:37;16.58;;;10.45;;
36415;SDS011;22447;44.530;18.620;2022-08-19T02:57:04;15.43;;;9.82;;
36415;SDS011;22447;44.530;18.620;2022-08-19T02:59:31;13.80;;;10.32;;
36415;SDS011;22447;44.530;18.620;2022-08-19T03:01:57;14.82;;;9.52;;
36415;SDS011;22447;44.530;18.620;2022-08-19T03:04:23;18.65;;;9.57;;
36415;SDS011;22447;44.530;18.620;2022-08-19T03:06:50;13.40;;;9.50;;
36415;SDS011;22447;44.530;18.620;2022-08-19T03:09:17;12.38;;;8.85;;
36415;SDS011;22447;44.530;18.620;2022-08-19T03:11:44;13.27;;;9.82;;
36415;SDS011;22447;44.530;18.620;2022-08-19T03:14:11;16.77;;;9.77;;
36415;SDS011;22447;44.530;18.620;2022-08-19T03:16:45;18.63;;;10.20;;
36415;SDS011;22447;44.530;18.620;2022-08-19T03:19:13;15.55;;;9.25;;
36415;SDS011;22447;44.530;18.620;2022-08-19T03:21:42;15.98;;;9.30;;
36415;SDS011;22447;44.530;18.620;2022-08-19T03:24:12;15.95;;;9.00;;
36415;SDS011;22447;44.530;18.620;2022-08-19T03:26:42;12.18;;;8.75;;
36415;SDS011;22447;44.530;18.620;2022-08-19T03:29:10;15.23;;;8.77;;
36415;SDS011;22447;44.530;18.620;2022-08-19T03:31:36;15.40;;;9.60;;
36415;SDS011;22447;44.530;18.620;2022-08-19T03:34:04;12.93;;;8.30;;
36415;SDS011;22447;44.530;18.620;2022-08-19T03:36:30;13.15;;;8.88;;
36415;SDS011;22447;44.530;18.620;2022-08-19T03:38:57;12.73;;;8.80;;
36415;SDS011;22447;44.530;18.620;2022-08-19T03:41:28;11.40;;;8.85;;
36415;SDS011;22447;44.530;18.620;2022-08-19T03:43:58;15.88;;;9.23;;
36415;SDS011;22447;44.530;18.620;2022-08-19T03:46:26;13.17;;;8.57;;
36415;SDS011;22447;44.530;18.620;2022-08-19T03:48:55;14.73;;;9.02;;
36415;SDS011;22447;44.530;18.620;2022-08-19T03:51:23;9.30;;;8.20;;
36415;SDS011;22447;44.530;18.620;2022-08-19T03:53:50;13.57;;;9.57;;
36415;SDS011;22447;44.530;18.620;2022-08-19T03:56:17;15.73;;;9.18;;
36415;SDS011;22447;44.530;18.620;2022-08-19T03:58:43;13.05;;;9.38;;
36415;SDS011;22447;44.530;18.620;2022-08-19T04:01:10;11.07;;;8.73;;
36415;SDS011;22447;44.530;18.620;2022-08-19T04:03:38;13.45;;;9.27;;
36415;SDS011;22447;44.530;18.620;2022-08-19T04:06:24;21.38;;;10.30;;
36415;SDS011;22447;44.530;18.620;2022-08-19T04:08:56;24.38;;;11.50;;
36415;SDS011;22447;44.530;18.620;2022-08-19T04:11:27;19.55;;;11.25;;
36415;SDS011;22447;44.530;18.620;2022-08-19T04:13:56;18.17;;;10.30;;
36415;SDS011;22447;44.530;18.620;2022-08-19T04:16:23;15.95;;;10.00;;
36415;SDS011;22447;44.530;18.620;2022-08-19T04:18:53;19.92;;;9.75;;
36415;SDS011;22447;44.530;18.620;2022-08-19T04:21:21;17.70;;;10.30;;
36415;SDS011;22447;44.530;18.620;2022-08-19T04:23:49;17.80;;;10.15;;
36415;SDS011;22447;44.530;18.620;2022-08-19T04:26:17;19.20;;;10.70;;
36415;SDS011;22447;44.530;18.620;2022-08-19T04:28:46;18.52;;;10.02;;
36415;SDS011;22447;44.530;18.620;2022-08-19T04:31:13;22.92;;;11.40;;
36415;SDS011;22447;44.530;18.620;2022-08-19T04:33:44;26.73;;;10.90;;
36415;SDS011;22447;44.530;18.620;2022-08-19T04:36:17;22.15;;;11.77;;
36415;SDS011;22447;44.530;18.620;2022-08-19T04:38:47;17.35;;;10.52;;
36415;SDS011;22447;44.530;18.620;2022-08-19T04:41:13;16.88;;;10.25;;
36415;SDS011;22447;44.530;18.620;2022-08-19T04:43:59;20.60;;;11.43;;
36415;SDS011;22447;44.530;18.620;2022-08-19T04:46:25;21.13;;;11.43;;
36415;SDS011;22447;44.530;18.620;2022-08-19T04:48:50;19.15;;;10.88;;
36415;SDS011;22447;44.530;18.620;2022-08-19T04:51:18;18.05;;;10.23;;
36415;SDS011;22447;44.530;18.620;2022-08-19T04:53:45;15.30;;;9.63;;
36415;SDS011;22447;44.530;18.620;2022-08-19T04:56:12;17.00;;;10.38;;
36415;SDS011;22447;44.530;18.620;2022-08-19T04:58:41;15.30;;;10.48;;
36415;SDS011;22447;44.530;18.620;2022-08-19T05:01:11;22.73;;;11.07;;
36415;SDS011;22447;44.530;18.620;2022-08-19T05:03:39;21.70;;;10.77;;
36415;SDS011;22447;44.530;18.620;2022-08-19T05:06:06;18.38;;;9.70;;
36415;SDS011;22447;44.530;18.620;2022-08-19T05:08:33;23.08;;;10.82;;
36415;SDS011;22447;44.530;18.620;2022-08-19T05:11:06;16.00;;;10.07;;
36415;SDS011;22447;44.530;18.620;2022-08-19T05:13:36;14.43;;;9.65;;
36415;SDS011;22447;44.530;18.620;2022-08-19T05:16:02;16.10;;;10.25;;
36415;SDS011;22447;44.530;18.620;2022-08-19T05:18:29;19.08;;;10.75;;
36415;SDS011;22447;44.530;18.620;2022-08-19T05:21:14;29.60;;;11.73;;
36415;SDS011;22447;44.530;18.620;2022-08-19T05:24:00;16.77;;;11.25;;
36415;SDS011;22447;44.530;18.620;2022-08-19T05:26:27;20.08;;;10.20;;
36415;SDS011;22447;44.530;18.620;2022-08-19T05:28:53;20.35;;;10.73;;
36415;SDS011;22447;44.530;18.620;2022-08-19T05:31:19;26.63;;;10.98;;
36415;SDS011;22447;44.530;18.620;2022-08-19T05:33:46;20.85;;;9.98;;
36415;SDS011;22447;44.530;18.620;2022-08-19T05:36:12;18.70;;;9.38;;
36415;SDS011;22447;44.530;18.620;2022-08-19T05:38:39;19.60;;;10.10;;
36415;SDS011;22447;44.530;18.620;2022-08-19T05:41:12;21.35;;;9.07;;
36415;SDS011;22447;44.530;18.620;2022-08-19T05:43:40;20.85;;;9.40;;
36415;SDS011;22447;44.530;18.620;2022-08-19T05:46:06;25.40;;;10.48;;
36415;SDS011;22447;44.530;18.620;2022-08-19T05:48:35;21.67;;;10.07;;
36415;SDS011;22447;44.530;18.620;2022-08-19T05:51:07;17.20;;;8.85;;
36415;SDS011;22447;44.530;18.620;2022-08-19T05:53:33;20.05;;;11.18;;
36415;SDS011;22447;44.530;18.620;2022-08-19T05:56:06;35.38;;;12.63;;
36415;SDS011;22447;44.530;18.620;2022-08-19T05:58:35;37.17;;;11.50;;
36415;SDS011;22447;44.530;18.620;2022-08-19T06:01:02;39.85;;;11.18;;
36415;SDS011;22447;44.530;18.620;2022-08-19T06:03:33;31.60;;;12.07;;
36415;SDS011;22447;44.530;18.620;2022-08-19T06:06:06;23.27;;;11.10;;
36415;SDS011;22447;44.530;18.620;2022-08-19T06:08:34;30.10;;;10.95;;
36415;SDS011;22447;44.530;18.620;2022-08-19T06:11:24;22.63;;;11.55;;
36415;SDS011;22447;44.530;18.620;2022-08-19T06:14:00;30.40;;;14.35;;
36415;SDS011;22447;44.530;18.620;2022-08-19T06:16:39;36.22;;;15.50;;
36415;SDS011;22447;44.530;18.620;2022-08-19T06:19:12;35.40;;;14.30;;
36415;SDS011;22447;44.530;18.620;2022-08-19T06:21:41;26.70;;;13.38;;
36415;SDS011;22447;44.530;18.620;2022-08-19T06:24:10;27.88;;;12.93;;
36415;SDS011;22447;44.530;18.620;2022-08-19T06:26:38;26.23;;;11.88;;
36415;SDS011;22447;44.530;18.620;2022-08-19T06:29:07;25.52;;;11.88;;
36415;SDS011;22447;44.530;18.620;2022-08-19T06:31:34;22.55;;;11.35;;
36415;SDS011;22447;44.530;18.620;2022-08-19T06:34:02;30.25;;;11.88;;
36415;SDS011;22447;44.530;18.620;2022-08-19T06:36:34;23.05;;;10.93;;
36415;SDS011;22447;44.530;18.620;2022-08-19T06:39:09;26.27;;;11.05;;
36415;SDS011;22447;44.530;18.620;2022-08-19T06:41:38;28.55;;;11.13;;
36415;SDS011;22447;44.530;18.620;2022-08-19T06:44:12;28.10;;;11.55;;
36415;SDS011;22447;44.530;18.620;2022-08-19T06:46:40;38.72;;;11.02;;
36415;SDS011;22447;44.530;18.620;2022-08-19T06:49:06;34.45;;;11.38;;
36415;SDS011;22447;44.530;18.620;2022-08-19T06:51:35;26.33;;;9.60;;
36415;SDS011;22447;44.530;18.620;2022-08-19T06:54:01;24.77;;;10.00;;
36415;SDS011;22447;44.530;18.620;2022-08-19T06:56:28;24.80;;;11.88;;
36415;SDS011;22447;44.530;18.620;2022-08-19T06:59:05;23.02;;;11.18;;
36415;SDS011;22447;44.530;18.620;2022-08-19T07:01:37;25.50;;;10.73;;
36415;SDS011;22447;44.530;18.620;2022-08-19T07:04:06;24.33;;;11.30;;
36415;SDS011;22447;44.530;18.620;2022-08-19T07:06:34;26.92;;;10.93;;
36415;SDS011;22447;44.530;18.620;2022-08-19T07:09:02;25.35;;;11.07;;
36415;SDS011;22447;44.530;18.620;2022-08-19T07:11:30;29.92;;;11.68;;
36415;SDS011;22447;44.530;18.620;2022-08-19T07:13:58;26.85;;;11.30;;
36415;SDS011;22447;44.530;18.620;2022-08-19T07:16:24;23.95;;;10.48;;
36415;SDS011;22447;44.530;18.620;2022-08-19T07:18:50;26.15;;;11.25;;
36415;SDS011;22447;44.530;18.620;2022-08-19T07:21:20;30.75;;;11.68;;
36415;SDS011;22447;44.530;18.620;2022-08-19T07:23:49;24.75;;;10.38;;
36415;SDS011;22447;44.530;18.620;2022-08-19T07:26:20;25.55;;;11.13;;
36415;SDS011;22447;44.530;18.620;2022-08-19T07:28:48;21.75;;;10.73;;
36415;SDS011;22447;44.530;18.620;2022-08-19T07:31:16;39.72;;;11.93;;
36415;SDS011;22447;44.530;18.620;2022-08-19T07:33:45;28.95;;;11.15;;
36415;SDS011;22447;44.530;18.620;2022-08-19T07:36:14;24.15;;;10.15;;
36415;SDS011;22447;44.530;18.620;2022-08-19T07:38:43;28.55;;;10.57;;
36415;SDS011;22447;44.530;18.620;2022-08-19T07:41:11;30.30;;;11.85;;
36415;SDS011;22447;44.530;18.620;2022-08-19T07:43:39;26.20;;;10.40;;
36415;SDS011;22447;44.530;18.620;2022-08-19T07:46:05;22.80;;;10.63;;
36415;SDS011;22447;44.530;18.620;2022-08-19T07:48:32;23.33;;;9.93;;
36415;SDS011;22447;44.530;18.620;2022-08-19T07:50:59;22.40;;;9.50;;
36415;SDS011;22447;44.530;18.620;2022-08-19T07:53:28;28.92;;;9.38;;
36415;SDS011;22447;44.530;18.620;2022-08-19T07:55:55;19.67;;;8.23;;
36415;SDS011;22447;44.530;18.620;2022-08-19T07:58:25;20.50;;;8.38;;
36415;SDS011;22447;44.530;18.620;2022-08-19T08:00:52;28.10;;;10.15;;
36415;SDS011;22447;44.530;18.620;2022-08-19T08:03:20;24.52;;;10.75;;
36415;SDS011;22447;44.530;18.620;2022-08-19T08:06:07;24.15;;;10.18;;
36415;SDS011;22447;44.530;18.620;2022-08-19T08:08:52;23.38;;;10.05;;
36415;SDS011;22447;44.530;18.620;2022-08-19T08:11:38;24.17;;;9.57;;
36415;SDS011;22447;44.530;18.620;2022-08-19T08:14:14;26.83;;;9.10;;
36415;SDS011;22447;44.530;18.620;2022-08-19T08:16:51;20.13;;;9.07;;
36415;SDS011;22447;44.530;18.620;2022-08-19T08:19:19;26.38;;;9.40;;
36415;SDS011;22447;44.530;18.620;2022-08-19T08:21:48;21.10;;;8.07;;
36415;SDS011;22447;44.530;18.620;2022-08-19T08:24:15;17.52;;;7.32;;
36415;SDS011;22447;44.530;18.620;2022-08-19T08:26:42;15.43;;;6.57;;
36415;SDS011;22447;44.530;18.620;2022-08-19T08:29:10;16.30;;;7.05;;
36415;SDS011;22447;44.530;18.620;2022-08-19T08:31:42;22.52;;;6.85;;
36415;SDS011;22447;44.530;18.620;2022-08-19T08:34:09;21.92;;;7.95;;
36415;SDS011;22447;44.530;18.620;2022-08-19T08:36:39;13.00;;;6.18;;
36415;SDS011;22447;44.530;18.620;2022-08-19T08:39:28;13.90;;;6.72;;
36415;SDS011;22447;44.530;18.620;2022-08-19T08:47:19;15.48;;;6.70;;
36415;SDS011;22447;44.530;18.620;2022-08-19T08:49:51;24.02;;;8.10;;
36415;SDS011;22447;44.530;18.620;2022-08-19T08:54:54;23.58;;;7.70;;
36415;SDS011;22447;44.530;18.620;2022-08-19T09:00:00;23.35;;;7.03;;
36415;SDS011;22447;44.530;18.620;2022-08-19T09:02:31;16.58;;;7.78;;
36415;SDS011;22447;44.530;18.620;2022-08-19T09:04:57;25.30;;;9.27;;
36415;SDS011;22447;44.530;18.620;2022-08-19T09:10:04;19.40;;;7.10;;
36415;SDS011;22447;44.530;18.620;2022-08-19T09:12:48;22.77;;;7.07;;
36415;SDS011;22447;44.530;18.620;2022-08-19T09:15:54;17.20;;;7.65;;
36415;SDS011;22447;44.530;18.620;2022-08-19T09:18:43;22.90;;;6.88;;
36415;SDS011;22447;44.530;18.620;2022-08-19T09:21:23;17.80;;;7.25;;
36415;SDS011;22447;44.530;18.620;2022-08-19T09:23:50;27.45;;;7.53;;
36415;SDS011;22447;44.530;18.620;2022-08-19T09:26:19;19.42;;;6.72;;
36415;SDS011;22447;44.530;18.620;2022-08-19T09:28:47;21.92;;;7.90;;
36415;SDS011;22447;44.530;18.620;2022-08-19T09:31:17;19.85;;;7.50;;
36415;SDS011;22447;44.530;18.620;2022-08-19T09:33:46;26.17;;;7.78;;
36415;SDS011;22447;44.530;18.620;2022-08-19T09:36:14;21.58;;;7.55;;
36415;SDS011;22447;44.530;18.620;2022-08-19T09:38:42;25.73;;;8.95;;
36415;SDS011;22447;44.530;18.620;2022-08-19T09:41:13;20.80;;;7.38;;
36415;SDS011;22447;44.530;18.620;2022-08-19T09:43:46;23.17;;;8.02;;
36415;SDS011;22447;44.530;18.620;2022-08-19T09:46:14;23.52;;;8.30;;
36415;SDS011;22447;44.530;18.620;2022-08-19T09:48:46;28.52;;;11.98;;
36415;SDS011;22447;44.530;18.620;2022-08-19T09:51:21;41.05;;;16.80;;
36415;SDS011;22447;44.530;18.620;2022-08-19T09:53:49;50.45;;;16.30;;
36415;SDS011;22447;44.530;18.620;2022-08-19T09:56:17;29.65;;;14.75;;
36415;SDS011;22447;44.530;18.620;2022-08-19T09:58:44;28.30;;;12.10;;
36415;SDS011;22447;44.530;18.620;2022-08-19T10:01:15;40.95;;;11.02;;
36415;SDS011;22447;44.530;18.620;2022-08-19T10:03:46;30.13;;;10.65;;
36415;SDS011;22447;44.530;18.620;2022-08-19T10:06:13;39.30;;;9.10;;
36415;SDS011;22447;44.530;18.620;2022-08-19T10:08:39;26.67;;;9.05;;
36415;SDS011;22447;44.530;18.620;2022-08-19T10:11:05;24.60;;;9.10;;
36415;SDS011;22447;44.530;18.620;2022-08-19T10:13:32;26.52;;;10.32;;
36415;SDS011;22447;44.530;18.620;2022-08-19T10:16:04;27.17;;;8.75;;
36415;SDS011;22447;44.530;18.620;2022-08-19T10:18:33;19.20;;;8.52;;
36415;SDS011;22447;44.530;18.620;2022-08-19T10:21:33;23.75;;;7.68;;
36415;SDS011;22447;44.530;18.620;2022-08-19T10:23:54;22.63;;;6.40;;
36415;SDS011;22447;44.530;18.620;2022-08-19T10:26:26;30.17;;;7.17;;
36415;SDS011;22447;44.530;18.620;2022-08-19T10:28:54;30.00;;;8.40;;
36415;SDS011;22447;44.530;18.620;2022-08-19T10:31:23;34.30;;;10.30;;
36415;SDS011;22447;44.530;18.620;2022-08-19T10:33:51;24.40;;;7.47;;
36415;SDS011;22447;44.530;18.620;2022-08-19T10:36:23;34.85;;;7.82;;
36415;SDS011;22447;44.530;18.620;2022-08-19T10:38:52;35.17;;;9.05;;
36415;SDS011;22447;44.530;18.620;2022-08-19T10:41:22;29.30;;;8.90;;
36415;SDS011;22447;44.530;18.620;2022-08-19T10:43:50;28.98;;;7.32;;
36415;SDS011;22447;44.530;18.620;2022-08-19T10:46:20;29.37;;;8.67;;
36415;SDS011;22447;44.530;18.620;2022-08-19T10:48:47;26.60;;;8.35;;
36415;SDS011;22447;44.530;18.620;2022-08-19T10:51:14;21.33;;;7.88;;
36415;SDS011;22447;44.530;18.620;2022-08-19T10:53:59;14.95;;;6.90;;
36415;SDS011;22447;44.530;18.620;2022-08-19T10:56:25;31.13;;;8.55;;
36415;SDS011;22447;44.530;18.620;2022-08-19T10:59:11;20.30;;;6.93;;
36415;SDS011;22447;44.530;18.620;2022-08-19T11:01:39;23.00;;;6.57;;
36415;SDS011;22447;44.530;18.620;2022-08-19T11:04:06;32.78;;;7.25;;
36415;SDS011;22447;44.530;18.620;2022-08-19T11:06:35;17.48;;;7.13;;
36415;SDS011;22447;44.530;18.620;2022-08-19T11:09:06;24.73;;;8.00;;
36415;SDS011;22447;44.530;18.620;2022-08-19T11:11:39;25.80;;;7.38;;
36415;SDS011;22447;44.530;18.620;2022-08-19T11:14:12;21.20;;;6.90;;
36415;SDS011;22447;44.530;18.620;2022-08-19T11:16:47;24.58;;;7.07;;
36415;SDS011;22447;44.530;18.620;2022-08-19T11:19:14;17.30;;;6.57;;
36415;SDS011;22447;44.530;18.620;2022-08-19T11:21:44;18.55;;;6.93;;
36415;SDS011;22447;44.530;18.620;2022-08-19T11:24:16;24.58;;;7.57;;
36415;SDS011;22447;44.530;18.620;2022-08-19T11:26:45;29.67;;;8.57;;
36415;SDS011;22447;44.530;18.620;2022-08-19T11:29:14;24.92;;;7.28;;
36415;SDS011;22447;44.530;18.620;2022-08-19T11:31:43;27.30;;;8.25;;
36415;SDS011;22447;44.530;18.620;2022-08-19T11:34:14;23.60;;;7.45;;
36415;SDS011;22447;44.530;18.620;2022-08-19T11:36:42;22.27;;;7.63;;
36415;SDS011;22447;44.530;18.620;2022-08-19T11:39:10;32.63;;;7.80;;
36415;SDS011;22447;44.530;18.620;2022-08-19T11:41:39;20.83;;;6.95;;
36415;SDS011;22447;44.530;18.620;2022-08-19T11:44:05;26.52;;;7.38;;
36415;SDS011;22447;44.530;18.620;2022-08-19T11:46:33;32.22;;;7.00;;
36415;SDS011;22447;44.530;18.620;2022-08-19T11:49:00;19.35;;;6.55;;
36415;SDS011;22447;44.530;18.620;2022-08-19T11:51:28;25.85;;;6.20;;
36415;SDS011;22447;44.530;18.620;2022-08-19T11:53:58;22.67;;;6.22;;
36415;SDS011;22447;44.530;18.620;2022-08-19T11:56:25;19.60;;;6.35;;
36415;SDS011;22447;44.530;18.620;2022-08-19T11:58:52;20.05;;;5.43;;
36415;SDS011;22447;44.530;18.620;2022-08-19T12:01:22;18.63;;;6.50;;
36415;SDS011;22447;44.530;18.620;2022-08-19T12:03:51;20.20;;;5.85;;
36415;SDS011;22447;44.530;18.620;2022-08-19T12:06:19;27.35;;;7.03;;
36415;SDS011;22447;44.530;18.620;2022-08-19T12:08:52;20.67;;;6.60;;
36415;SDS011;22447;44.530;18.620;2022-08-19T12:11:19;21.00;;;6.82;;
36415;SDS011;22447;44.530;18.620;2022-08-19T12:13:45;29.65;;;6.80;;
36415;SDS011;22447;44.530;18.620;2022-08-19T12:16:13;23.25;;;5.45;;
36415;SDS011;22447;44.530;18.620;2022-08-19T12:18:45;24.65;;;5.97;;
36415;SDS011;22447;44.530;18.620;2022-08-19T12:21:15;13.73;;;4.82;;
36415;SDS011;22447;44.530;18.620;2022-08-19T12:23:42;21.65;;;6.20;;
36415;SDS011;22447;44.530;18.620;2022-08-19T12:26:10;18.48;;;5.70;;
36415;SDS011;22447;44.530;18.620;2022-08-19T12:28:37;21.27;;;5.25;;
36415;SDS011;22447;44.530;18.620;2022-08-19T12:31:04;16.73;;;5.22;;
36415;SDS011;22447;44.530;18.620;2022-08-19T12:33:31;21.73;;;6.95;;
36415;SDS011;22447;44.530;18.620;2022-08-19T12:36:02;18.90;;;5.47;;
36415;SDS011;22447;44.530;18.620;2022-08-19T12:38:30;25.73;;;6.20;;
36415;SDS011;22447;44.530;18.620;2022-08-19T12:40:57;13.25;;;5.68;;
36415;SDS011;22447;44.530;18.620;2022-08-19T12:43:23;16.77;;;6.30;;
36415;SDS011;22447;44.530;18.620;2022-08-19T12:45:49;24.45;;;6.07;;
36415;SDS011;22447;44.530;18.620;2022-08-19T12:48:16;19.58;;;6.60;;
36415;SDS011;22447;44.530;18.620;2022-08-19T12:50:43;23.90;;;6.57;;
36415;SDS011;22447;44.530;18.620;2022-08-19T12:53:12;20.27;;;6.50;;
36415;SDS011;22447;44.530;18.620;2022-08-19T12:55:39;19.17;;;6.20;;
36415;SDS011;22447;44.530;18.620;2022-08-19T12:58:06;22.98;;;6.80;;
36415;SDS011;22447;44.530;18.620;2022-08-19T13:00:32;19.33;;;6.10;;
36415;SDS011;22447;44.530;18.620;2022-08-19T13:02:58;18.50;;;5.72;;
36415;SDS011;22447;44.530;18.620;2022-08-19T13:05:26;18.67;;;6.78;;
36415;SDS011;22447;44.530;18.620;2022-08-19T13:07:55;20.88;;;7.75;;
36415;SDS011;22447;44.530;18.620;2022-08-19T13:10:25;25.90;;;6.93;;
36415;SDS011;22447;44.530;18.620;2022-08-19T13:12:53;32.92;;;8.32;;
36415;SDS011;22447;44.530;18.620;2022-08-19T13:15:20;23.60;;;6.63;;
36415;SDS011;22447;44.530;18.620;2022-08-19T13:17:48;20.80;;;6.45;;
36415;SDS011;22447;44.530;18.620;2022-08-19T13:20:15;31.33;;;7.03;;
36415;SDS011;22447;44.530;18.620;2022-08-19T13:22:44;47.25;;;11.18;;
36415;SDS011;22447;44.530;18.620;2022-08-19T13:25:11;32.08;;;8.52;;
36415;SDS011;22447;44.530;18.620;2022-08-19T13:27:38;26.98;;;6.90;;
36415;SDS011;22447;44.530;18.620;2022-08-19T13:30:06;23.58;;;8.07;;
36415;SDS011;22447;44.530;18.620;2022-08-19T13:32:52;26.08;;;7.50;;
36415;SDS011;22447;44.530;18.620;2022-08-19T13:35:37;42.22;;;8.65;;
36415;SDS011;22447;44.530;18.620;2022-08-19T13:38:04;23.42;;;7.35;;
36415;SDS011;22447;44.530;18.620;2022-08-19T13:40:31;23.38;;;8.48;;
36415;SDS011;22447;44.530;18.620;2022-08-19T13:43:01;23.95;;;8.35;;
36415;SDS011;22447;44.530;18.620;2022-08-19T13:45:29;25.13;;;7.97;;
36415;SDS011;22447;44.530;18.620;2022-08-19T13:47:58;21.05;;;7.70;;
36415;SDS011;22447;44.530;18.620;2022-08-19T13:50:28;19.77;;;7.32;;
36415;SDS011;22447;44.530;18.620;2022-08-19T13:52:56;23.10;;;8.23;;
36415;SDS011;22447;44.530;18.620;2022-08-19T13:55:22;26.88;;;7.55;;
36415;SDS011;22447;44.530;18.620;2022-08-19T13:57:50;26.33;;;7.32;;
36415;SDS011;22447;44.530;18.620;2022-08-19T14:00:20;21.40;;;6.13;;
36415;SDS011;22447;44.530;18.620;2022-08-19T14:02:51;20.85;;;6.60;;
36415;SDS011;22447;44.530;18.620;2022-08-19T14:05:19;29.42;;;10.40;;
36415;SDS011;22447;44.530;18.620;2022-08-19T14:07:45;34.65;;;7.72;;
36415;SDS011;22447;44.530;18.620;2022-08-19T14:10:13;24.88;;;6.78;;
36415;SDS011;22447;44.530;18.620;2022-08-19T14:12:40;32.53;;;8.00;;
36415;SDS011;22447;44.530;18.620;2022-08-19T14:15:07;36.63;;;8.25;;
36415;SDS011;22447;44.530;18.620;2022-08-19T14:17:38;25.33;;;6.20;;
36415;SDS011;22447;44.530;18.620;2022-08-19T14:20:09;25.27;;;7.00;;
36415;SDS011;22447;44.530;18.620;2022-08-19T14:22:38;19.45;;;6.68;;
36415;SDS011;22447;44.530;18.620;2022-08-19T14:25:06;28.83;;;6.55;;
36415;SDS011;22447;44.530;18.620;2022-08-19T14:27:35;25.35;;;7.00;;
36415;SDS011;22447;44.530;18.620;2022-08-19T14:30:06;24.42;;;6.80;;
36415;SDS011;22447;44.530;18.620;2022-08-19T14:32:34;29.77;;;7.78;;
36415;SDS011;22447;44.530;18.620;2022-08-19T14:35:01;26.65;;;7.38;;
36415;SDS011;22447;44.530;18.620;2022-08-19T14:37:27;33.58;;;7.90;;
36415;SDS011;22447;44.530;18.620;2022-08-19T14:39:54;27.20;;;7.22;;
36415;SDS011;22447;44.530;18.620;2022-08-19T14:42:20;22.42;;;6.25;;